»·PEaware :: N515ZT L52-L88

N515ZT :: L52-L88

FLIGHT INFORMATION

Flight Status: Arrived
Operator: Privately registered:
United States
More flights under this callsign
Pilot: Marty P. (27464)
Aircraft: BEECH AIRCRAFT BARON
(BE58)
More flights by this aircraft type
Origin: L52 Oceano Co
United States
Destination: L88 New Cuyama
United States
More flights between these airports :: More routes between these airports
Route: L52 L88
File this flight plan on PilotEdge
Remarks:
Altitude:
(Current/Filed)
8,500ft
Speed:
(Current/Filed)
215kts
Departed: 06-Jan-20 07:04 PM
Arrived: 06-Jan-20 07:38 PM
Distance/Time
Traveled:
47nm/0:34
Distance/Time
To Go:
Arrived

Flight Plot

Page will automatically refresh every two minutes.


Map Options




Map Legend


Flown Route
Filed Route
Departure Airport
Arrival Airport
Navaid (VOR, NDB)
Fix

Horizontal Profiles

Position Reports

Time Latitude Longitude Heading Altitude Ground
Speed
06-Jan-20 18:45 35.103405 -120.624442 32 18ft 0kts
06-Jan-20 18:46 35.103406 -120.624442 32 18ft 0kts
06-Jan-20 18:47 35.103406 -120.624442 32 18ft 0kts
06-Jan-20 18:48 35.103406 -120.624442 32 18ft 0kts
06-Jan-20 18:49 35.103406 -120.624442 32 18ft 0kts
06-Jan-20 18:50 35.103406 -120.624442 32 18ft 0kts
06-Jan-20 18:51 35.103406 -120.624442 32 18ft 0kts
06-Jan-20 18:52 35.103406 -120.624442 32 18ft 0kts
06-Jan-20 18:53 35.103406 -120.624442 32 18ft 0kts
06-Jan-20 18:54 35.103406 -120.624442 32 18ft 0kts
06-Jan-20 18:55 35.103409 -120.624440 32 18ft 0kts
06-Jan-20 18:56 35.103308 -120.624046 125 18ft 6kts
06-Jan-20 18:57 35.102811 -120.623732 211 18ft 0kts
06-Jan-20 18:58 35.102175 -120.624228 187 18ft 4kts
06-Jan-20 18:59 35.101306 -120.622776 121 18ft 10kts
06-Jan-20 19:00 35.100231 -120.620766 123 18ft 13kts
06-Jan-20 19:01 35.099540 -120.619400 88 18ft 0kts
06-Jan-20 19:02 35.099960 -120.619310 303 18ft 0kts
06-Jan-20 19:03 35.105057 -120.630161 291 420ft 100kts
06-Jan-20 19:04 35.115925 -120.651542 303 1875ft 83kts
06-Jan-20 19:05 35.117382 -120.674362 210 3284ft 101kts
06-Jan-20 19:06 35.102574 -120.660960 77 4623ft 94kts
06-Jan-20 19:07 35.103104 -120.638384 93 5667ft 97kts
06-Jan-20 19:08 35.099851 -120.613079 98 6707ft 104kts
06-Jan-20 19:09 35.097969 -120.601290 99 7146ft 106kts
06-Jan-20 19:10 35.093631 -120.575200 100 8081ft 108kts
06-Jan-20 19:11 35.088688 -120.545905 100 8647ft 139kts
06-Jan-20 19:12 35.081302 -120.502457 100 8584ft 180kts
06-Jan-20 19:13 35.072121 -120.448414 100 8228ft 190kts
06-Jan-20 19:14 35.064374 -120.402799 100 8492ft 180kts
06-Jan-20 19:15 35.056742 -120.363938 110 8248ft 152kts
06-Jan-20 19:16 35.043932 -120.330546 117 6351ft 185kts
06-Jan-20 19:17 35.037294 -120.301349 69 7327ft 89kts
06-Jan-20 19:18 35.040924 -120.280966 86 8074ft 93kts
06-Jan-20 19:19 35.038642 -120.254117 98 8779ft 112kts
06-Jan-20 19:20 35.031796 -120.212395 101 8435ft 178kts
06-Jan-20 19:21 35.023826 -120.166137 101 8531ft 182kts
06-Jan-20 19:22 35.015414 -120.117411 101 8486ft 186kts
06-Jan-20 19:23 35.007684 -120.072725 102 8496ft 185kts
06-Jan-20 19:24 35.000174 -120.029419 102 8402ft 191kts
06-Jan-20 19:25 34.990330 -119.972811 102 7478ft 197kts
06-Jan-20 19:26 34.982654 -119.928770 102 7385ft 176kts
06-Jan-20 19:27 34.975393 -119.887186 102 7521ft 169kts
06-Jan-20 19:28 34.967990 -119.845040 102 7305ft 172kts
06-Jan-20 19:29 34.960551 -119.802483 103 5652ft 137kts
06-Jan-20 19:30 34.955652 -119.774490 103 4333ft 123kts
06-Jan-20 19:31 34.950824 -119.747135 103 3223ft 124kts
06-Jan-20 19:32 34.941418 -119.721151 155 2756ft 123kts
06-Jan-20 19:33 34.919949 -119.693495 123 2765ft 152kts
06-Jan-20 19:34 34.908900 -119.664357 80 2824ft 110kts
06-Jan-20 19:35 34.924083 -119.654259 329 3006ft 114kts
06-Jan-20 19:36 34.934775 -119.673135 296 2332ft 97kts
06-Jan-20 19:37 34.939955 -119.685634 296 2207ft 15kts
06-Jan-20 19:38 34.941835 -119.690197 296 2207ft 24kts
06-Jan-20 19:39 34.942483 -119.691044 321 2207ft 6kts
06-Jan-20 19:40 34.942537 -119.690317 190 2207ft 0kts
06-Jan-20 19:41 34.942537 -119.690317 190 2207ft 0kts
06-Jan-20 19:42 34.942537 -119.690317 190 2207ft 0kts

Navigation Log

Ident Type
Flight plan parsing failed, navigation log unavailable